sensor_id;sensor_type;location;lat;lon;timestamp;P1;durP1;ratioP1;P2;durP2;ratioP2
38379;SDS011;38377;47.418;18.882;2023-07-13T00:00:13;12.43;;;3.00;;
38379;SDS011;38377;47.418;18.882;2023-07-13T00:02:41;4.13;;;2.90;;
38379;SDS011;38377;47.418;18.882;2023-07-13T00:05:08;7.13;;;2.97;;
38379;SDS011;38377;47.418;18.882;2023-07-13T00:07:34;5.90;;;2.30;;
38379;SDS011;38377;47.418;18.882;2023-07-13T00:10:00;3.17;;;2.58;;
38379;SDS011;38377;47.418;18.882;2023-07-13T00:12:30;2.75;;;1.90;;
38379;SDS011;38377;47.418;18.882;2023-07-13T00:14:58;3.25;;;2.13;;
38379;SDS011;38377;47.418;18.882;2023-07-13T00:17:25;3.60;;;2.05;;
38379;SDS011;38377;47.418;18.882;2023-07-13T00:19:52;2.47;;;1.52;;
38379;SDS011;38377;47.418;18.882;2023-07-13T00:22:18;2.95;;;1.45;;
38379;SDS011;38377;47.418;18.882;2023-07-13T00:24:44;2.85;;;1.40;;
38379;SDS011;38377;47.418;18.882;2023-07-13T00:27:10;4.90;;;1.65;;
38379;SDS011;38377;47.418;18.882;2023-07-13T00:29:36;2.75;;;1.50;;
38379;SDS011;38377;47.418;18.882;2023-07-13T00:32:03;2.40;;;1.00;;
38379;SDS011;38377;47.418;18.882;2023-07-13T00:34:30;2.17;;;1.10;;
38379;SDS011;38377;47.418;18.882;2023-07-13T00:36:56;2.70;;;1.20;;
38379;SDS011;38377;47.418;18.882;2023-07-13T00:39:22;1.10;;;0.80;;
38379;SDS011;38377;47.418;18.882;2023-07-13T00:41:49;1.35;;;0.90;;
38379;SDS011;38377;47.418;18.882;2023-07-13T00:44:16;1.35;;;0.85;;
38379;SDS011;38377;47.418;18.882;2023-07-13T00:46:43;1.48;;;1.02;;
38379;SDS011;38377;47.418;18.882;2023-07-13T00:49:10;2.85;;;1.00;;
38379;SDS011;38377;47.418;18.882;2023-07-13T00:51:48;1.70;;;1.05;;
38379;SDS011;38377;47.418;18.882;2023-07-13T00:54:30;1.50;;;0.90;;
38379;SDS011;38377;47.418;18.882;2023-07-13T00:57:03;1.25;;;0.80;;
38379;SDS011;38377;47.418;18.882;2023-07-13T00:59:31;1.80;;;0.90;;
38379;SDS011;38377;47.418;18.882;2023-07-13T01:01:59;1.63;;;0.70;;
38379;SDS011;38377;47.418;18.882;2023-07-13T01:04:26;2.90;;;0.90;;
38379;SDS011;38377;47.418;18.882;2023-07-13T01:06:52;1.10;;;0.70;;
38379;SDS011;38377;47.418;18.882;2023-07-13T01:09:19;3.90;;;1.02;;
38379;SDS011;38377;47.418;18.882;2023-07-13T01:11:45;3.38;;;1.35;;
38379;SDS011;38377;47.418;18.882;2023-07-13T01:14:12;1.42;;;1.02;;
38379;SDS011;38377;47.418;18.882;2023-07-13T01:16:39;2.13;;;1.15;;
38379;SDS011;38377;47.418;18.882;2023-07-13T01:24:36;2.60;;;1.10;;
38379;SDS011;38377;47.418;18.882;2023-07-13T01:27:03;2.45;;;1.40;;
38379;SDS011;38377;47.418;18.882;2023-07-13T01:29:31;2.17;;;0.80;;
38379;SDS011;38377;47.418;18.882;2023-07-13T01:31:58;1.70;;;0.95;;
38379;SDS011;38377;47.418;18.882;2023-07-13T01:34:25;2.00;;;0.93;;
38379;SDS011;38377;47.418;18.882;2023-07-13T01:36:51;2.38;;;1.20;;
38379;SDS011;38377;47.418;18.882;2023-07-13T01:39:19;2.03;;;1.10;;
38379;SDS011;38377;47.418;18.882;2023-07-13T01:41:45;3.42;;;1.10;;
38379;SDS011;38377;47.418;18.882;2023-07-13T01:44:11;1.33;;;0.85;;
38379;SDS011;38377;47.418;18.882;2023-07-13T01:46:37;2.95;;;0.90;;
38379;SDS011;38377;47.418;18.882;2023-07-13T01:49:02;1.52;;;0.90;;
38379;SDS011;38377;47.418;18.882;2023-07-13T01:51:28;2.38;;;1.10;;
38379;SDS011;38377;47.418;18.882;2023-07-13T01:53:54;1.40;;;1.00;;
38379;SDS011;38377;47.418;18.882;2023-07-13T01:56:20;1.83;;;1.30;;
38379;SDS011;38377;47.418;18.882;2023-07-13T01:58:45;2.95;;;1.30;;
38379;SDS011;38377;47.418;18.882;2023-07-13T02:01:11;2.72;;;1.20;;
38379;SDS011;38377;47.418;18.882;2023-07-13T02:03:37;2.58;;;1.40;;
38379;SDS011;38377;47.418;18.882;2023-07-13T02:06:03;1.67;;;1.02;;
38379;SDS011;38377;47.418;18.882;2023-07-13T02:08:28;2.00;;;1.25;;
38379;SDS011;38377;47.418;18.882;2023-07-13T02:10:54;3.28;;;1.30;;
38379;SDS011;38377;47.418;18.882;2023-07-13T02:13:20;2.40;;;1.42;;
38379;SDS011;38377;47.418;18.882;2023-07-13T02:15:45;2.40;;;1.20;;
38379;SDS011;38377;47.418;18.882;2023-07-13T02:18:11;2.30;;;1.38;;
38379;SDS011;38377;47.418;18.882;2023-07-13T02:20:42;2.65;;;1.65;;
38379;SDS011;38377;47.418;18.882;2023-07-13T02:23:08;2.10;;;1.40;;
38379;SDS011;38377;47.418;18.882;2023-07-13T02:25:33;1.63;;;1.30;;
38379;SDS011;38377;47.418;18.882;2023-07-13T02:27:59;2.50;;;1.70;;
38379;SDS011;38377;47.418;18.882;2023-07-13T02:30:25;2.35;;;1.30;;
38379;SDS011;38377;47.418;18.882;2023-07-13T02:32:50;1.88;;;1.40;;
38379;SDS011;38377;47.418;18.882;2023-07-13T02:35:16;3.50;;;1.77;;
38379;SDS011;38377;47.418;18.882;2023-07-13T02:37:42;2.30;;;1.30;;
38379;SDS011;38377;47.418;18.882;2023-07-13T02:40:08;2.60;;;1.67;;
38379;SDS011;38377;47.418;18.882;2023-07-13T02:42:34;4.38;;;1.80;;
38379;SDS011;38377;47.418;18.882;2023-07-13T02:45:00;5.53;;;1.85;;
38379;SDS011;38377;47.418;18.882;2023-07-13T02:47:26;4.90;;;2.20;;
38379;SDS011;38377;47.418;18.882;2023-07-13T02:49:51;5.30;;;2.20;;
38379;SDS011;38377;47.418;18.882;2023-07-13T02:52:17;7.07;;;3.28;;
38379;SDS011;38377;47.418;18.882;2023-07-13T02:54:43;3.15;;;2.13;;
38379;SDS011;38377;47.418;18.882;2023-07-13T02:57:08;5.57;;;2.38;;
38379;SDS011;38377;47.418;18.882;2023-07-13T02:59:34;8.35;;;2.47;;
38379;SDS011;38377;47.418;18.882;2023-07-13T03:02:01;4.05;;;2.50;;
38379;SDS011;38377;47.418;18.882;2023-07-13T03:04:27;7.63;;;3.00;;
38379;SDS011;38377;47.418;18.882;2023-07-13T03:06:52;5.07;;;2.97;;
38379;SDS011;38377;47.418;18.882;2023-07-13T03:09:23;6.63;;;3.20;;
38379;SDS011;38377;47.418;18.882;2023-07-13T03:11:52;6.72;;;3.42;;
38379;SDS011;38377;47.418;18.882;2023-07-13T03:16:47;4.00;;;3.17;;
38379;SDS011;38377;47.418;18.882;2023-07-13T03:19:12;5.65;;;2.67;;
38379;SDS011;38377;47.418;18.882;2023-07-13T03:21:38;3.03;;;2.45;;
38379;SDS011;38377;47.418;18.882;2023-07-13T03:24:04;5.13;;;2.30;;
38379;SDS011;38377;47.418;18.882;2023-07-13T03:26:30;4.78;;;2.58;;
38379;SDS011;38377;47.418;18.882;2023-07-13T03:28:56;3.13;;;2.30;;
38379;SDS011;38377;47.418;18.882;2023-07-13T03:31:24;4.65;;;2.55;;
38379;SDS011;38377;47.418;18.882;2023-07-13T03:33:53;3.20;;;1.80;;
38379;SDS011;38377;47.418;18.882;2023-07-13T03:36:21;5.68;;;2.72;;
38379;SDS011;38377;47.418;18.882;2023-07-13T03:38:52;3.20;;;2.05;;
38379;SDS011;38377;47.418;18.882;2023-07-13T03:41:20;5.97;;;2.38;;
38379;SDS011;38377;47.418;18.882;2023-07-13T03:43:47;3.40;;;2.28;;
38379;SDS011;38377;47.418;18.882;2023-07-13T03:46:14;7.32;;;2.47;;
38379;SDS011;38377;47.418;18.882;2023-07-13T03:48:40;7.38;;;2.60;;
38379;SDS011;38377;47.418;18.882;2023-07-13T03:51:09;4.28;;;2.83;;
38379;SDS011;38377;47.418;18.882;2023-07-13T03:53:37;3.00;;;2.40;;
38379;SDS011;38377;47.418;18.882;2023-07-13T03:56:04;4.30;;;2.50;;
38379;SDS011;38377;47.418;18.882;2023-07-13T04:00:58;2.90;;;2.30;;
38379;SDS011;38377;47.418;18.882;2023-07-13T04:03:25;3.58;;;2.00;;
38379;SDS011;38377;47.418;18.882;2023-07-13T04:05:53;3.05;;;2.10;;
38379;SDS011;38377;47.418;18.882;2023-07-13T04:08:19;4.78;;;2.08;;
38379;SDS011;38377;47.418;18.882;2023-07-13T04:10:45;3.08;;;1.58;;
38379;SDS011;38377;47.418;18.882;2023-07-13T04:13:11;2.78;;;2.10;;
38379;SDS011;38377;47.418;18.882;2023-07-13T04:15:38;3.55;;;2.22;;
38379;SDS011;38377;47.418;18.882;2023-07-13T04:18:04;3.65;;;2.33;;
38379;SDS011;38377;47.418;18.882;2023-07-13T04:20:29;8.18;;;2.47;;
38379;SDS011;38377;47.418;18.882;2023-07-13T04:22:55;3.13;;;2.10;;
38379;SDS011;38377;47.418;18.882;2023-07-13T04:25:22;3.38;;;2.10;;
38379;SDS011;38377;47.418;18.882;2023-07-13T04:27:48;3.58;;;2.40;;
38379;SDS011;38377;47.418;18.882;2023-07-13T04:30:14;5.55;;;2.58;;
38379;SDS011;38377;47.418;18.882;2023-07-13T04:32:40;5.03;;;3.13;;
38379;SDS011;38377;47.418;18.882;2023-07-13T04:35:05;6.82;;;2.88;;
38379;SDS011;38377;47.418;18.882;2023-07-13T04:37:31;5.97;;;3.55;;
38379;SDS011;38377;47.418;18.882;2023-07-13T04:39:57;4.88;;;2.80;;
38379;SDS011;38377;47.418;18.882;2023-07-13T04:42:23;5.57;;;2.90;;
38379;SDS011;38377;47.418;18.882;2023-07-13T04:44:49;6.43;;;3.10;;
38379;SDS011;38377;47.418;18.882;2023-07-13T04:47:15;5.53;;;2.95;;
38379;SDS011;38377;47.418;18.882;2023-07-13T04:49:40;6.43;;;3.78;;
38379;SDS011;38377;47.418;18.882;2023-07-13T04:52:06;6.72;;;4.15;;
38379;SDS011;38377;47.418;18.882;2023-07-13T04:54:33;5.65;;;4.13;;
38379;SDS011;38377;47.418;18.882;2023-07-13T04:56:59;4.88;;;4.30;;
38379;SDS011;38377;47.418;18.882;2023-07-13T04:59:25;8.75;;;5.10;;
38379;SDS011;38377;47.418;18.882;2023-07-13T05:01:51;7.15;;;5.30;;
38379;SDS011;38377;47.418;18.882;2023-07-13T05:04:18;5.90;;;5.22;;
38379;SDS011;38377;47.418;18.882;2023-07-13T05:06:43;7.05;;;5.90;;
38379;SDS011;38377;47.418;18.882;2023-07-13T05:09:09;9.75;;;5.85;;
38379;SDS011;38377;47.418;18.882;2023-07-13T05:11:34;7.47;;;6.43;;
38379;SDS011;38377;47.418;18.882;2023-07-13T05:14:00;10.32;;;5.70;;
38379;SDS011;38377;47.418;18.882;2023-07-13T05:16:29;8.15;;;4.88;;
38379;SDS011;38377;47.418;18.882;2023-07-13T05:18:54;5.82;;;4.60;;
38379;SDS011;38377;47.418;18.882;2023-07-13T05:21:20;6.07;;;4.10;;
38379;SDS011;38377;47.418;18.882;2023-07-13T05:23:46;8.88;;;4.68;;
38379;SDS011;38377;47.418;18.882;2023-07-13T05:26:12;6.93;;;3.47;;
38379;SDS011;38377;47.418;18.882;2023-07-13T05:28:38;6.18;;;4.43;;
38379;SDS011;38377;47.418;18.882;2023-07-13T05:31:05;4.53;;;3.15;;
38379;SDS011;38377;47.418;18.882;2023-07-13T05:33:33;7.25;;;4.22;;
38379;SDS011;38377;47.418;18.882;2023-07-13T05:35:58;6.70;;;4.15;;
38379;SDS011;38377;47.418;18.882;2023-07-13T05:38:25;5.15;;;4.15;;
38379;SDS011;38377;47.418;18.882;2023-07-13T05:40:53;5.40;;;4.43;;
38379;SDS011;38377;47.418;18.882;2023-07-13T05:43:20;5.32;;;4.07;;
38379;SDS011;38377;47.418;18.882;2023-07-13T05:45:46;4.82;;;3.88;;
38379;SDS011;38377;47.418;18.882;2023-07-13T05:48:11;5.32;;;3.88;;
38379;SDS011;38377;47.418;18.882;2023-07-13T05:50:37;5.97;;;3.40;;
38379;SDS011;38377;47.418;18.882;2023-07-13T05:53:03;5.93;;;3.83;;
38379;SDS011;38377;47.418;18.882;2023-07-13T05:55:28;7.80;;;4.25;;
38379;SDS011;38377;47.418;18.882;2023-07-13T05:57:54;4.22;;;3.40;;
38379;SDS011;38377;47.418;18.882;2023-07-13T06:00:20;4.18;;;3.70;;
38379;SDS011;38377;47.418;18.882;2023-07-13T06:02:45;6.28;;;3.70;;
38379;SDS011;38377;47.418;18.882;2023-07-13T06:05:12;5.13;;;3.95;;
38379;SDS011;38377;47.418;18.882;2023-07-13T06:07:38;5.68;;;4.07;;
38379;SDS011;38377;47.418;18.882;2023-07-13T06:10:04;8.45;;;3.83;;
38379;SDS011;38377;47.418;18.882;2023-07-13T06:12:30;5.57;;;3.47;;
38379;SDS011;38377;47.418;18.882;2023-07-13T06:14:55;7.18;;;3.97;;
38379;SDS011;38377;47.418;18.882;2023-07-13T06:17:21;5.95;;;3.85;;
38379;SDS011;38377;47.418;18.882;2023-07-13T06:19:47;7.53;;;3.58;;
38379;SDS011;38377;47.418;18.882;2023-07-13T06:22:12;4.70;;;3.50;;
38379;SDS011;38377;47.418;18.882;2023-07-13T06:24:38;5.20;;;3.83;;
38379;SDS011;38377;47.418;18.882;2023-07-13T06:27:03;4.97;;;3.20;;
38379;SDS011;38377;47.418;18.882;2023-07-13T06:29:29;4.45;;;3.20;;
38379;SDS011;38377;47.418;18.882;2023-07-13T06:31:56;3.95;;;2.88;;
38379;SDS011;38377;47.418;18.882;2023-07-13T06:34:22;4.88;;;2.90;;
38379;SDS011;38377;47.418;18.882;2023-07-13T06:36:47;3.67;;;2.80;;
38379;SDS011;38377;47.418;18.882;2023-07-13T06:39:13;3.20;;;2.50;;
38379;SDS011;38377;47.418;18.882;2023-07-13T06:41:39;2.42;;;2.17;;
38379;SDS011;38377;47.418;18.882;2023-07-13T06:44:05;3.50;;;2.45;;
38379;SDS011;38377;47.418;18.882;2023-07-13T06:46:31;2.85;;;2.13;;
38379;SDS011;38377;47.418;18.882;2023-07-13T06:48:57;3.03;;;2.13;;
38379;SDS011;38377;47.418;18.882;2023-07-13T06:51:23;4.30;;;2.35;;
38379;SDS011;38377;47.418;18.882;2023-07-13T06:53:49;3.33;;;2.45;;
38379;SDS011;38377;47.418;18.882;2023-07-13T06:56:15;4.53;;;2.35;;
38379;SDS011;38377;47.418;18.882;2023-07-13T06:58:41;3.35;;;2.05;;
38379;SDS011;38377;47.418;18.882;2023-07-13T07:01:06;2.88;;;1.85;;
38379;SDS011;38377;47.418;18.882;2023-07-13T07:03:33;2.22;;;2.00;;
38379;SDS011;38377;47.418;18.882;2023-07-13T07:06:18;2.30;;;2.10;;
38379;SDS011;38377;47.418;18.882;2023-07-13T07:08:48;5.55;;;2.13;;
38379;SDS011;38377;47.418;18.882;2023-07-13T07:11:16;2.85;;;2.38;;
38379;SDS011;38377;47.418;18.882;2023-07-13T07:13:44;2.83;;;2.28;;
38379;SDS011;38377;47.418;18.882;2023-07-13T07:16:10;3.10;;;2.30;;
38379;SDS011;38377;47.418;18.882;2023-07-13T07:18:35;4.13;;;2.47;;
38379;SDS011;38377;47.418;18.882;2023-07-13T07:21:01;2.92;;;2.00;;
38379;SDS011;38377;47.418;18.882;2023-07-13T07:23:27;3.45;;;2.33;;
38379;SDS011;38377;47.418;18.882;2023-07-13T07:25:53;8.23;;;2.83;;
38379;SDS011;38377;47.418;18.882;2023-07-13T07:28:20;3.55;;;2.45;;
38379;SDS011;38377;47.418;18.882;2023-07-13T07:30:46;4.05;;;2.70;;
38379;SDS011;38377;47.418;18.882;2023-07-13T07:33:13;4.60;;;2.92;;
38379;SDS011;38377;47.418;18.882;2023-07-13T07:35:39;4.75;;;2.70;;
38379;SDS011;38377;47.418;18.882;2023-07-13T07:38:05;5.32;;;3.17;;
38379;SDS011;38377;47.418;18.882;2023-07-13T07:40:31;5.28;;;2.70;;
38379;SDS011;38377;47.418;18.882;2023-07-13T07:42:57;4.05;;;3.28;;
38379;SDS011;38377;47.418;18.882;2023-07-13T07:45:23;5.97;;;2.97;;
38379;SDS011;38377;47.418;18.882;2023-07-13T07:47:48;5.47;;;2.97;;
38379;SDS011;38377;47.418;18.882;2023-07-13T07:50:15;4.40;;;2.58;;
38379;SDS011;38377;47.418;18.882;2023-07-13T07:52:40;4.47;;;2.35;;
38379;SDS011;38377;47.418;18.882;2023-07-13T07:55:06;2.72;;;2.00;;
38379;SDS011;38377;47.418;18.882;2023-07-13T07:57:33;3.30;;;1.80;;
38379;SDS011;38377;47.418;18.882;2023-07-13T07:59:59;2.40;;;1.80;;
38379;SDS011;38377;47.418;18.882;2023-07-13T08:02:25;3.88;;;1.63;;
38379;SDS011;38377;47.418;18.882;2023-07-13T08:04:51;6.43;;;1.95;;
38379;SDS011;38377;47.418;18.882;2023-07-13T08:07:17;2.42;;;1.85;;
38379;SDS011;38377;47.418;18.882;2023-07-13T08:09:43;2.80;;;1.77;;
38379;SDS011;38377;47.418;18.882;2023-07-13T08:12:09;2.30;;;1.70;;
38379;SDS011;38377;47.418;18.882;2023-07-13T08:14:35;3.30;;;1.83;;
38379;SDS011;38377;47.418;18.882;2023-07-13T08:17:00;1.98;;;1.45;;
38379;SDS011;38377;47.418;18.882;2023-07-13T08:19:26;2.08;;;1.77;;
38379;SDS011;38377;47.418;18.882;2023-07-13T08:21:52;2.33;;;2.13;;
38379;SDS011;38377;47.418;18.882;2023-07-13T08:24:17;2.75;;;1.83;;
38379;SDS011;38377;47.418;18.882;2023-07-13T08:26:44;2.35;;;1.73;;
38379;SDS011;38377;47.418;18.882;2023-07-13T08:29:11;2.28;;;1.60;;
38379;SDS011;38377;47.418;18.882;2023-07-13T08:31:36;3.78;;;2.08;;
38379;SDS011;38377;47.418;18.882;2023-07-13T08:34:02;3.05;;;1.88;;
38379;SDS011;38377;47.418;18.882;2023-07-13T08:36:28;3.08;;;1.90;;
38379;SDS011;38377;47.418;18.882;2023-07-13T08:38:54;3.42;;;1.88;;
38379;SDS011;38377;47.418;18.882;2023-07-13T08:41:20;4.43;;;2.15;;
38379;SDS011;38377;47.418;18.882;2023-07-13T08:43:47;3.58;;;1.98;;
38379;SDS011;38377;47.418;18.882;2023-07-13T08:46:23;3.90;;;2.40;;
38379;SDS011;38377;47.418;18.882;2023-07-13T08:49:01;3.13;;;2.00;;
38379;SDS011;38377;47.418;18.882;2023-07-13T08:54:42;4.30;;;1.83;;
38379;SDS011;38377;47.418;18.882;2023-07-13T08:57:19;2.83;;;1.95;;
38379;SDS011;38377;47.418;18.882;2023-07-13T08:59:46;3.60;;;2.10;;
38379;SDS011;38377;47.418;18.882;2023-07-13T09:02:18;2.40;;;2.08;;
38379;SDS011;38377;47.418;18.882;2023-07-13T09:04:50;2.67;;;1.92;;
38379;SDS011;38377;47.418;18.882;2023-07-13T09:10:19;3.30;;;1.90;;
38379;SDS011;38377;47.418;18.882;2023-07-13T09:13:37;2.28;;;1.95;;
38379;SDS011;38377;47.418;18.882;2023-07-13T09:15:56;1.88;;;1.77;;
38379;SDS011;38377;47.418;18.882;2023-07-13T09:18:31;1.98;;;1.77;;
38379;SDS011;38377;47.418;18.882;2023-07-13T09:21:00;3.20;;;2.20;;
38379;SDS011;38377;47.418;18.882;2023-07-13T09:23:28;2.17;;;1.73;;
38379;SDS011;38377;47.418;18.882;2023-07-13T09:28:48;2.60;;;2.25;;
38379;SDS011;38377;47.418;18.882;2023-07-13T09:31:39;2.00;;;1.83;;
38379;SDS011;38377;47.418;18.882;2023-07-13T09:34:10;4.75;;;2.20;;
38379;SDS011;38377;47.418;18.882;2023-07-13T09:36:37;1.98;;;1.77;;
38379;SDS011;38377;47.418;18.882;2023-07-13T09:41:57;2.47;;;2.10;;
38379;SDS011;38377;47.418;18.882;2023-07-13T09:47:00;2.55;;;1.85;;
38379;SDS011;38377;47.418;18.882;2023-07-13T09:49:28;2.95;;;1.75;;
38379;SDS011;38377;47.418;18.882;2023-07-13T09:51:59;2.60;;;1.70;;
38379;SDS011;38377;47.418;18.882;2023-07-13T09:54:33;2.40;;;1.90;;
38379;SDS011;38377;47.418;18.882;2023-07-13T09:57:00;2.83;;;1.65;;
38379;SDS011;38377;47.418;18.882;2023-07-13T09:59:30;3.25;;;1.88;;
38379;SDS011;38377;47.418;18.882;2023-07-13T10:01:58;2.45;;;1.70;;
38379;SDS011;38377;47.418;18.882;2023-07-13T10:04:30;1.95;;;1.50;;
38379;SDS011;38377;47.418;18.882;2023-07-13T10:07:04;3.15;;;2.00;;
38379;SDS011;38377;47.418;18.882;2023-07-13T10:09:32;2.00;;;1.55;;
38379;SDS011;38377;47.418;18.882;2023-07-13T10:11:57;2.75;;;1.98;;
38379;SDS011;38377;47.418;18.882;2023-07-13T10:14:23;2.67;;;1.75;;
38379;SDS011;38377;47.418;18.882;2023-07-13T10:16:51;2.55;;;1.58;;
38379;SDS011;38377;47.418;18.882;2023-07-13T10:19:29;2.70;;;1.70;;
38379;SDS011;38377;47.418;18.882;2023-07-13T10:22:01;3.33;;;1.80;;
38379;SDS011;38377;47.418;18.882;2023-07-13T10:24:38;2.58;;;2.00;;
38379;SDS011;38377;47.418;18.882;2023-07-13T10:27:24;2.30;;;1.92;;
38379;SDS011;38377;47.418;18.882;2023-07-13T10:30:09;2.33;;;1.90;;
38379;SDS011;38377;47.418;18.882;2023-07-13T10:32:44;2.17;;;1.98;;
38379;SDS011;38377;47.418;18.882;2023-07-13T10:35:11;2.65;;;1.67;;
38379;SDS011;38377;47.418;18.882;2023-07-13T10:37:41;3.05;;;2.00;;
38379;SDS011;38377;47.418;18.882;2023-07-13T10:40:25;2.10;;;1.90;;
38379;SDS011;38377;47.418;18.882;2023-07-13T10:42:56;2.10;;;1.80;;
38379;SDS011;38377;47.418;18.882;2023-07-13T10:45:24;3.53;;;1.60;;
38379;SDS011;38377;47.418;18.882;2023-07-13T10:47:52;2.13;;;1.75;;
38379;SDS011;38377;47.418;18.882;2023-07-13T10:50:24;2.92;;;1.83;;
38379;SDS011;38377;47.418;18.882;2023-07-13T10:52:55;2.28;;;1.63;;
38379;SDS011;38377;47.418;18.882;2023-07-13T10:58:23;3.13;;;2.30;;
38379;SDS011;38377;47.418;18.882;2023-07-13T11:03:31;3.55;;;1.48;;
38379;SDS011;38377;47.418;18.882;2023-07-13T11:18:47;3.45;;;2.08;;
38379;SDS011;38377;47.418;18.882;2023-07-13T11:21:16;2.25;;;1.85;;
38379;SDS011;38377;47.418;18.882;2023-07-13T11:23:44;4.65;;;2.03;;
38379;SDS011;38377;47.418;18.882;2023-07-13T11:27:18;2.45;;;1.90;;
38379;SDS011;38377;47.418;18.882;2023-07-13T11:32:20;2.75;;;2.00;;
38379;SDS011;38377;47.418;18.882;2023-07-13T11:34:54;2.42;;;1.83;;
38379;SDS011;38377;47.418;18.882;2023-07-13T11:37:21;4.35;;;2.38;;
38379;SDS011;38377;47.418;18.882;2023-07-13T11:39:48;3.42;;;1.83;;
38379;SDS011;38377;47.418;18.882;2023-07-13T11:42:17;2.28;;;2.08;;
38379;SDS011;38377;47.418;18.882;2023-07-13T11:44:45;3.25;;;1.55;;
38379;SDS011;38377;47.418;18.882;2023-07-13T11:47:20;2.83;;;1.67;;
38379;SDS011;38377;47.418;18.882;2023-07-13T11:49:51;1.95;;;1.70;;
38379;SDS011;38377;47.418;18.882;2023-07-13T11:52:34;2.90;;;2.20;;
38379;SDS011;38377;47.418;18.882;2023-07-13T11:55:03;2.85;;;1.90;;
38379;SDS011;38377;47.418;18.882;2023-07-13T11:57:40;2.45;;;1.92;;
38379;SDS011;38377;47.418;18.882;2023-07-13T12:00:13;3.60;;;2.20;;
38379;SDS011;38377;47.418;18.882;2023-07-13T12:02:45;2.30;;;1.92;;
38379;SDS011;38377;47.418;18.882;2023-07-13T12:05:14;2.10;;;1.90;;
38379;SDS011;38377;47.418;18.882;2023-07-13T12:07:42;2.92;;;1.98;;
38379;SDS011;38377;47.418;18.882;2023-07-13T12:12:36;3.05;;;2.25;;
38379;SDS011;38377;47.418;18.882;2023-07-13T12:15:13;2.90;;;2.20;;
38379;SDS011;38377;47.418;18.882;2023-07-13T12:17:39;4.45;;;2.25;;
38379;SDS011;38377;47.418;18.882;2023-07-13T12:20:23;2.38;;;2.05;;
38379;SDS011;38377;47.418;18.882;2023-07-13T12:22:52;3.25;;;2.10;;
38379;SDS011;38377;47.418;18.882;2023-07-13T12:25:18;3.58;;;2.63;;
38379;SDS011;38377;47.418;18.882;2023-07-13T12:27:49;3.08;;;2.22;;
38379;SDS011;38377;47.418;18.882;2023-07-13T12:33:00;4.30;;;2.70;;
38379;SDS011;38377;47.418;18.882;2023-07-13T12:35:39;2.88;;;2.50;;
38379;SDS011;38377;47.418;18.882;2023-07-13T12:38:10;2.92;;;2.55;;
38379;SDS011;38377;47.418;18.882;2023-07-13T12:40:36;3.60;;;2.30;;
38379;SDS011;38377;47.418;18.882;2023-07-13T12:43:03;2.50;;;2.30;;
38379;SDS011;38377;47.418;18.882;2023-07-13T12:45:31;2.75;;;2.15;;
38379;SDS011;38377;47.418;18.882;2023-07-13T12:47:59;2.45;;;2.10;;
38379;SDS011;38377;47.418;18.882;2023-07-13T12:50:42;3.05;;;2.30;;
38379;SDS011;38377;47.418;18.882;2023-07-13T12:53:15;3.15;;;2.17;;
38379;SDS011;38377;47.418;18.882;2023-07-13T12:55:53;2.40;;;2.20;;
38379;SDS011;38377;47.418;18.882;2023-07-13T12:58:41;2.45;;;2.25;;
38379;SDS011;38377;47.418;18.882;2023-07-13T13:01:09;3.60;;;2.20;;
38379;SDS011;38377;47.418;18.882;2023-07-13T13:03:44;4.13;;;2.92;;
38379;SDS011;38377;47.418;18.882;2023-07-13T13:08:48;3.00;;;2.00;;
38379;SDS011;38377;47.418;18.882;2023-07-13T13:11:15;3.80;;;3.00;;
38379;SDS011;38377;47.418;18.882;2023-07-13T13:13:41;5.53;;;3.78;;
38379;SDS011;38377;47.418;18.882;2023-07-13T13:16:12;3.45;;;2.50;;
38379;SDS011;38377;47.418;18.882;2023-07-13T13:18:57;4.05;;;2.20;;
38379;SDS011;38377;47.418;18.882;2023-07-13T13:23:53;2.00;;;1.80;;
38379;SDS011;38377;47.418;18.882;2023-07-13T13:26:19;3.05;;;2.00;;
38379;SDS011;38377;47.418;18.882;2023-07-13T13:28:46;3.20;;;2.30;;
38379;SDS011;38377;47.418;18.882;2023-07-13T13:31:13;2.53;;;1.80;;
38379;SDS011;38377;47.418;18.882;2023-07-13T13:33:40;2.50;;;2.20;;
38379;SDS011;38377;47.418;18.882;2023-07-13T13:36:18;4.07;;;2.53;;
38379;SDS011;38377;47.418;18.882;2023-07-13T13:38:46;2.92;;;2.10;;
38379;SDS011;38377;47.418;18.882;2023-07-13T13:41:13;3.97;;;1.70;;
38379;SDS011;38377;47.418;18.882;2023-07-13T13:43:39;2.20;;;1.95;;
38379;SDS011;38377;47.418;18.882;2023-07-13T13:46:24;2.20;;;1.80;;
38379;SDS011;38377;47.418;18.882;2023-07-13T13:48:50;3.67;;;2.35;;
38379;SDS011;38377;47.418;18.882;2023-07-13T13:51:17;2.15;;;1.95;;
38379;SDS011;38377;47.418;18.882;2023-07-13T13:53:45;2.10;;;1.90;;
38379;SDS011;38377;47.418;18.882;2023-07-13T13:56:11;2.10;;;1.90;;
38379;SDS011;38377;47.418;18.882;2023-07-13T13:58:37;1.70;;;1.60;;
38379;SDS011;38377;47.418;18.882;2023-07-13T14:01:03;3.22;;;2.00;;
38379;SDS011;38377;47.418;18.882;2023-07-13T14:03:33;2.08;;;1.83;;
38379;SDS011;38377;47.418;18.882;2023-07-13T14:05:59;2.58;;;2.00;;
38379;SDS011;38377;47.418;18.882;2023-07-13T14:08:25;1.83;;;1.35;;
38379;SDS011;38377;47.418;18.882;2023-07-13T14:10:51;4.18;;;2.30;;
38379;SDS011;38377;47.418;18.882;2023-07-13T14:13:42;2.53;;;1.88;;
38379;SDS011;38377;47.418;18.882;2023-07-13T14:16:20;2.30;;;2.08;;
38379;SDS011;38377;47.418;18.882;2023-07-13T14:18:47;2.67;;;2.28;;
38379;SDS011;38377;47.418;18.882;2023-07-13T14:21:15;2.20;;;2.00;;
38379;SDS011;38377;47.418;18.882;2023-07-13T14:23:43;2.38;;;2.17;;
38379;SDS011;38377;47.418;18.882;2023-07-13T14:26:19;2.70;;;2.35;;
38379;SDS011;38377;47.418;18.882;2023-07-13T14:31:17;2.75;;;2.33;;
38379;SDS011;38377;47.418;18.882;2023-07-13T14:33:44;2.20;;;1.80;;
38379;SDS011;38377;47.418;18.882;2023-07-13T14:36:32;2.70;;;2.00;;
38379;SDS011;38377;47.418;18.882;2023-07-13T14:38:58;3.33;;;2.38;;
38379;SDS011;38377;47.418;18.882;2023-07-13T14:41:31;2.15;;;1.95;;
38379;SDS011;38377;47.418;18.882;2023-07-13T14:43:56;3.35;;;2.08;;
38379;SDS011;38377;47.418;18.882;2023-07-13T14:48:59;2.35;;;2.10;;
38379;SDS011;38377;47.418;18.882;2023-07-13T14:51:28;4.38;;;2.33;;
38379;SDS011;38377;47.418;18.882;2023-07-13T14:53:55;3.85;;;2.53;;
38379;SDS011;38377;47.418;18.882;2023-07-13T14:56:21;3.30;;;2.15;;
38379;SDS011;38377;47.418;18.882;2023-07-13T14:58:46;2.75;;;2.20;;
38379;SDS011;38377;47.418;18.882;2023-07-13T15:01:12;4.45;;;2.30;;
38379;SDS011;38377;47.418;18.882;2023-07-13T15:03:41;2.40;;;2.17;;
38379;SDS011;38377;47.418;18.882;2023-07-13T15:06:10;2.97;;;2.40;;
38379;SDS011;38377;47.418;18.882;2023-07-13T15:08:37;5.43;;;2.30;;
38379;SDS011;38377;47.418;18.882;2023-07-13T15:11:03;3.20;;;2.15;;
38379;SDS011;38377;47.418;18.882;2023-07-13T15:13:30;2.53;;;2.33;;
38379;SDS011;38377;47.418;18.882;2023-07-13T15:15:55;9.88;;;2.70;;
38379;SDS011;38377;47.418;18.882;2023-07-13T15:18:22;2.85;;;2.58;;
38379;SDS011;38377;47.418;18.882;2023-07-13T15:20:50;2.42;;;2.22;;
38379;SDS011;38377;47.418;18.882;2023-07-13T15:23:20;2.65;;;2.40;;
38379;SDS011;38377;47.418;18.882;2023-07-13T15:25:47;2.50;;;2.28;;
38379;SDS011;38377;47.418;18.882;2023-07-13T15:28:14;2.90;;;2.13;;
38379;SDS011;38377;47.418;18.882;2023-07-13T15:30:41;3.00;;;2.40;;
38379;SDS011;38377;47.418;18.882;2023-07-13T15:35:38;3.35;;;2.72;;
38379;SDS011;38377;47.418;18.882;2023-07-13T15:38:14;3.13;;;2.55;;
38379;SDS011;38377;47.418;18.882;2023-07-13T15:40:42;2.92;;;2.58;;
38379;SDS011;38377;47.418;18.882;2023-07-13T15:43:11;4.32;;;2.42;;